Time;durP1;ratioP1;P1;durP2;ratioP2;P2;SDS_P1;SDS_P2;PMS_P1;PMS_P2;Temp;Humidity;BMP_temperature;BMP_pressure;BME280_temperature;BME280_humidity;BME280_pressure;Samples;Min_cycle;Max_cycle;Signal;HPM_P1;HPM_P2
2022/05/08 00:01:17;;;;;;;4.03;3.30;;;11.90;97.40;11.80;101220.00;;;;4956337;28;87945;-66
2022/05/08 00:03:43;;;;;;;7.03;3.23;;;11.80;98.10;11.70;101226.00;;;;4940884;28;116982;-66
2022/05/08 00:06:10;;;;;;;2.83;2.57;;;11.80;98.00;11.70;101235.00;;;;4956747;28;88106;-66
2022/05/08 00:08:38;;;;;;;5.20;3.17;;;11.70;98.20;11.60;101232.00;;;;4956372;28;88385;-66
2022/05/08 00:11:04;;;;;;;3.63;3.27;;;11.60;98.50;11.50;101229.00;;;;4955176;28;87764;-66
2022/05/08 00:13:31;;;;;;;4.30;3.40;;;11.60;98.80;11.50;101232.00;;;;4936578;28;108075;-66
2022/05/08 00:15:58;;;;;;;6.17;3.13;;;11.50;99.10;11.50;101241.00;;;;4936242;28;87904;-66
2022/05/08 00:18:23;;;;;;;4.23;3.10;;;11.50;99.40;11.40;101231.00;;;;4936713;28;87822;-66
2022/05/08 00:20:49;;;;;;;5.13;4.03;;;11.50;99.60;11.40;101240.00;;;;4953126;28;108512;-66
2022/05/08 00:23:17;;;;;;;4.30;3.00;;;11.40;99.60;11.40;101234.00;;;;4944226;28;116826;-66
2022/05/08 00:25:43;;;;;;;4.63;3.73;;;11.40;99.80;11.30;101229.00;;;;4935589;28;115404;-66
2022/05/08 00:28:09;;;;;;;5.23;3.90;;;11.40;99.90;11.20;101231.00;;;;4935462;28;109321;-67
2022/05/08 00:30:36;;;;;;;5.73;4.20;;;11.30;99.90;11.10;101231.00;;;;4951806;28;107822;-66
2022/05/08 00:33:01;;;;;;;3.37;3.07;;;11.20;99.90;11.10;101241.00;;;;4946370;28;88378;-66
2022/05/08 00:35:33;;;;;;;3.27;2.67;;;11.10;99.90;11.00;101230.00;;;;4932585;28;105744;-66
2022/05/08 00:37:59;;;;;;;4.23;3.47;;;11.10;99.90;11.00;101225.00;;;;4936199;28;99958;-66
2022/05/08 00:40:25;;;;;;;3.70;3.17;;;11.00;99.90;11.00;101222.00;;;;4938984;28;108777;-66
2022/05/08 00:42:50;;;;;;;3.17;2.90;;;11.00;99.90;11.00;101223.00;;;;4947649;28;107280;-66
2022/05/08 00:45:16;;;;;;;3.60;3.30;;;11.00;99.90;10.90;101225.00;;;;4935777;28;88828;-66
2022/05/08 00:47:42;;;;;;;3.93;2.77;;;11.00;99.90;10.90;101218.00;;;;4936590;28;88305;-66
2022/05/08 00:50:08;;;;;;;3.70;3.10;;;10.90;99.90;10.80;101220.00;;;;4936244;28;87800;-66
2022/05/08 00:52:37;;;;;;;4.80;3.20;;;10.90;99.90;10.70;101224.00;;;;4940548;28;106090;-66
2022/05/08 00:55:04;;;;;;;4.73;3.30;;;10.80;99.90;10.70;101212.00;;;;4954447;28;117554;-66
2022/05/08 00:57:30;;;;;;;3.87;3.57;;;10.70;99.90;10.60;101215.00;;;;4955264;28;89388;-67
2022/05/08 01:00:01;;;;;;;3.80;2.83;;;10.70;99.90;10.60;101221.00;;;;4942589;28;88057;-66
2022/05/08 01:02:28;;;;;;;4.07;2.60;;;10.70;99.90;10.60;101212.00;;;;4953117;28;88017;-67
2022/05/08 01:04:54;;;;;;;3.63;3.23;;;10.70;99.90;10.60;101222.00;;;;4953130;28;106756;-66
2022/05/08 01:07:20;;;;;;;4.67;3.67;;;10.60;99.90;10.60;101211.00;;;;4955088;28;105832;-66
2022/05/08 01:09:46;;;;;;;4.00;3.27;;;10.60;99.90;10.50;101227.00;;;;4954923;28;88700;-66
2022/05/08 01:12:12;;;;;;;4.43;4.00;;;10.60;99.90;10.50;101231.00;;;;4952615;28;117777;-67
2022/05/08 01:14:37;;;;;;;4.70;4.20;;;10.60;99.90;10.50;101224.00;;;;4934697;28;116963;-66
2022/05/08 01:17:03;;;;;;;3.33;2.63;;;10.60;99.90;10.50;101227.00;;;;4935852;28;88001;-66
2022/05/08 01:19:44;;;;;;;3.33;2.70;;;10.60;99.90;10.40;101226.00;;;;4936973;28;99635;-66
2022/05/08 01:22:10;;;;;;;5.63;3.37;;;10.50;99.90;10.40;101225.00;;;;4935147;28;97594;-66
2022/05/08 01:24:36;;;;;;;10.57;3.50;;;10.50;99.90;10.40;101224.00;;;;4934459;28;116217;-66
2022/05/08 01:27:01;;;;;;;3.80;2.97;;;10.50;99.90;10.40;101220.00;;;;4934793;28;110354;-66
2022/05/08 01:29:27;;;;;;;3.93;3.17;;;10.50;99.90;10.40;101224.00;;;;4942335;28;109039;-66
2022/05/08 01:31:53;;;;;;;4.87;3.50;;;10.40;99.90;10.30;101216.00;;;;4954752;28;89246;-66
2022/05/08 01:34:19;;;;;;;3.50;3.23;;;10.40;99.90;10.30;101229.00;;;;4941062;28;90205;-66
2022/05/08 01:36:45;;;;;;;4.03;3.30;;;10.40;99.90;10.30;101221.00;;;;4936050;28;87646;-66
2022/05/08 01:39:11;;;;;;;5.73;3.20;;;10.40;99.90;10.30;101231.00;;;;4938790;28;108107;-66
2022/05/08 01:41:36;;;;;;;5.03;3.53;;;10.40;99.90;10.30;101226.00;;;;4936634;28;100605;-66
2022/05/08 01:44:02;;;;;;;3.80;3.30;;;10.40;99.90;10.30;101230.00;;;;4935285;28;87723;-66
2022/05/08 01:46:28;;;;;;;5.30;4.07;;;10.40;99.90;10.40;101229.00;;;;4934964;28;88215;-67
2022/05/08 01:48:54;;;;;;;3.90;3.53;;;10.40;99.90;10.40;101225.00;;;;4937379;28;90338;-66
2022/05/08 01:51:35;;;;;;;7.63;3.80;;;10.40;99.90;10.40;101227.00;;;;4952003;28;116836;-67
2022/05/08 01:54:02;;;;;;;3.73;3.37;;;10.50;99.90;10.40;101232.00;;;;4954829;28;88125;-66
2022/05/08 01:56:28;;;;;;;4.13;3.73;;;10.40;99.90;10.40;101235.00;;;;4955131;28;88028;-66
2022/05/08 01:58:54;;;;;;;4.00;3.53;;;10.40;99.90;10.40;101228.00;;;;4952971;28;88902;-66
2022/05/08 02:01:21;;;;;;;3.77;3.30;;;10.40;99.90;10.50;101227.00;;;;4943310;28;109138;-66
2022/05/08 02:03:46;;;;;;;6.60;3.83;;;10.50;99.90;10.50;101222.00;;;;4952177;28;88776;-66
2022/05/08 02:06:16;;;;;;;3.00;2.67;;;10.50;99.90;10.50;101238.00;;;;4953837;28;108772;-66
2022/05/08 02:08:42;;;;;;;4.13;3.83;;;10.50;99.90;10.50;101242.00;;;;4951444;28;87626;-67
2022/05/08 02:11:08;;;;;;;4.03;2.93;;;10.50;99.90;10.60;101243.00;;;;4952672;28;117723;-66
2022/05/08 02:13:33;;;;;;;4.37;3.40;;;10.50;99.90;10.60;101241.00;;;;4947663;28;88422;-66
2022/05/08 02:15:59;;;;;;;2.90;2.60;;;10.60;99.90;10.60;101237.00;;;;4954932;28;96551;-66
2022/05/08 02:18:25;;;;;;;3.37;2.90;;;10.60;99.90;10.70;101244.00;;;;4954368;28;87976;-66
2022/05/08 02:20:50;;;;;;;5.13;3.70;;;10.70;99.90;10.80;101243.00;;;;4953006;28;88806;-66
2022/05/08 02:23:16;;;;;;;4.83;4.03;;;10.70;99.90;10.90;101246.00;;;;4934698;28;115152;-66
2022/05/08 02:25:42;;;;;;;6.33;3.73;;;10.80;99.90;10.90;101238.00;;;;4934597;28;110428;-66
2022/05/08 02:28:09;;;;;;;5.83;4.17;;;10.90;99.90;11.00;101246.00;;;;4934594;28;87940;-66
2022/05/08 02:30:34;;;;;;;5.23;3.83;;;10.90;99.90;11.00;101244.00;;;;4935314;28;88309;-66
2022/05/08 02:33:01;;;;;;;4.27;3.67;;;11.00;99.90;11.10;101249.00;;;;4933478;28;118237;-66
2022/05/08 02:35:26;;;;;;;4.50;3.63;;;11.00;99.90;11.20;101246.00;;;;4935286;28;87666;-66
2022/05/08 02:37:54;;;;;;;5.90;3.83;;;11.10;99.90;11.20;101249.00;;;;4933697;28;109811;-67
2022/05/08 02:40:24;;;;;;;4.30;3.40;;;11.20;99.90;11.30;101251.00;;;;4945958;28;88222;-67
2022/05/08 02:42:51;;;;;;;4.80;3.80;;;11.30;99.90;11.40;101236.00;;;;4934328;28;87605;-66
2022/05/08 02:45:16;;;;;;;4.43;3.83;;;11.40;99.90;11.50;101243.00;;;;4937623;28;87640;-67
2022/05/08 02:47:42;;;;;;;4.73;3.43;;;11.40;99.90;11.50;101249.00;;;;4938169;28;88650;-67
2022/05/08 02:50:09;;;;;;;4.00;3.60;;;11.50;99.90;11.50;101240.00;;;;4962930;28;107396;-67
2022/05/08 02:52:37;;;;;;;4.93;4.43;;;11.50;99.90;11.60;101234.00;;;;4954742;28;108821;-66
2022/05/08 02:58:32;;;;;;;3.40;2.90;;;11.60;99.90;11.60;101230.00;;;;4944156;28;87974;-66
2022/05/08 03:00:35;;;;;;;5.37;3.73;;;11.60;99.90;11.60;101241.00;;;;4954422;28;87655;-66
2022/05/08 03:03:04;;;;;;;3.63;2.97;;;11.60;99.90;11.60;101239.00;;;;4956853;28;88762;-66
2022/05/08 03:05:30;;;;;;;6.10;4.07;;;11.60;99.90;11.60;101238.00;;;;4956967;28;101856;-66
2022/05/08 03:07:55;;;;;;;5.27;4.20;;;11.60;99.90;11.60;101245.00;;;;4956111;28;109764;-67
2022/05/08 03:10:21;;;;;;;5.10;4.30;;;11.60;99.90;11.60;101254.00;;;;4944705;28;117611;-66
2022/05/08 03:12:47;;;;;;;3.83;3.53;;;11.60;99.90;11.60;101243.00;;;;4936009;28;118849;-66
2022/05/08 03:15:12;;;;;;;3.60;3.30;;;11.60;99.90;11.60;101250.00;;;;4937949;28;88283;-66
2022/05/08 03:17:38;;;;;;;5.00;3.90;;;11.60;99.90;11.60;101250.00;;;;4936940;28;109247;-67
2022/05/08 03:20:04;;;;;;;3.57;3.13;;;11.60;99.90;11.60;101246.00;;;;4961794;28;88311;-67
2022/05/08 03:22:30;;;;;;;7.67;4.80;;;11.60;99.90;11.50;101244.00;;;;4947765;28;107480;-66
2022/05/08 03:24:56;;;;;;;5.63;4.17;;;11.50;99.90;11.50;101243.00;;;;4954494;28;102951;-67
2022/05/08 03:27:21;;;;;;;4.47;4.07;;;11.50;99.90;11.50;101246.00;;;;4956318;28;108029;-66
2022/05/08 03:29:53;;;;;;;5.53;3.60;;;11.50;99.90;11.50;101250.00;;;;4956066;28;116222;-67
2022/05/08 03:32:19;;;;;;;7.60;3.90;;;11.50;99.90;11.50;101250.00;;;;4955647;28;87739;-66
2022/05/08 03:34:44;;;;;;;5.60;3.67;;;11.50;99.90;11.50;101249.00;;;;4955513;28;111602;-66
2022/05/08 03:37:10;;;;;;;4.00;3.50;;;11.50;99.90;11.50;101261.00;;;;4955972;28;108922;-66
2022/05/08 03:39:36;;;;;;;4.63;3.90;;;11.50;99.90;11.50;101252.00;;;;4938863;28;94635;-67
2022/05/08 03:42:02;;;;;;;4.87;4.03;;;11.50;99.90;11.50;101250.00;;;;4964878;28;116933;-66
2022/05/08 03:44:27;;;;;;;4.67;3.77;;;11.50;99.90;11.50;101255.00;;;;4937234;28;98455;-67
2022/05/08 03:46:53;;;;;;;6.40;3.93;;;11.50;99.90;11.60;101257.00;;;;4935780;28;109092;-66
2022/05/08 03:49:19;;;;;;;4.07;3.67;;;11.50;99.90;11.60;101258.00;;;;4941930;28;118522;-67
2022/05/08 03:51:44;;;;;;;4.83;3.70;;;11.50;99.90;11.60;101261.00;;;;4955830;28;116626;-66
2022/05/08 03:54:10;;;;;;;3.97;3.57;;;11.60;99.90;11.70;101260.00;;;;4939283;28;111354;-66
2022/05/08 03:56:36;;;;;;;5.67;4.37;;;11.60;99.90;11.70;101257.00;;;;4937263;28;87984;-66
2022/05/08 03:59:01;;;;;;;6.93;4.07;;;11.60;99.90;11.70;101259.00;;;;4936302;28;87884;-66
2022/05/08 04:01:27;;;;;;;6.30;3.47;;;11.70;99.90;11.70;101258.00;;;;4945816;28;101219;-66
2022/05/08 04:03:53;;;;;;;4.43;3.60;;;11.60;99.90;11.70;101264.00;;;;4956199;28;87610;-67
2022/05/08 04:06:18;;;;;;;5.67;4.47;;;11.60;99.90;11.70;101270.00;;;;4955802;28;109445;-67
2022/05/08 04:08:52;;;;;;;3.43;3.13;;;11.70;99.90;11.70;101277.00;;;;4953893;28;117545;-67
2022/05/08 04:11:19;;;;;;;5.40;3.70;;;11.70;99.90;11.70;101270.00;;;;4936935;28;88547;-67
2022/05/08 04:13:45;;;;;;;5.10;3.77;;;11.70;99.90;11.70;101271.00;;;;4936860;28;87809;-67
2022/05/08 04:16:16;;;;;;;5.27;3.60;;;11.70;99.90;11.70;101275.00;;;;4935697;28;109674;-67
2022/05/08 04:18:43;;;;;;;5.33;3.17;;;11.70;99.90;11.80;101262.00;;;;4936469;28;87883;-66
2022/05/08 04:21:09;;;;;;;5.53;3.60;;;11.70;99.90;11.80;101276.00;;;;4937531;28;87830;-66
2022/05/08 04:26:18;;;;;;;6.53;3.70;;;11.80;99.90;11.90;101277.00;;;;4953368;28;89004;-68
2022/05/08 04:28:44;;;;;;;4.17;3.73;;;11.90;99.90;12.00;101278.00;;;;4954875;28;117687;-66
2022/05/08 04:31:10;;;;;;;5.20;4.00;;;12.00;99.90;12.00;101280.00;;;;4955667;28;88125;-66
2022/05/08 04:33:36;;;;;;;4.50;3.73;;;12.00;99.90;12.00;101286.00;;;;4946482;28;87623;-66
2022/05/08 04:36:01;;;;;;;3.80;3.23;;;12.00;99.90;12.10;101288.00;;;;4935206;28;109820;-67
2022/05/08 04:38:27;;;;;;;4.27;3.87;;;12.00;99.90;12.10;101285.00;;;;4949832;28;107381;-65
2022/05/08 04:40:53;;;;;;;6.90;4.30;;;12.10;99.90;12.10;101295.00;;;;4953777;28;117761;-65
2022/05/08 04:43:18;;;;;;;6.37;4.67;;;12.10;99.90;12.10;101299.00;;;;4948636;28;110793;-65
2022/05/08 04:45:44;;;;;;;5.03;4.00;;;12.10;99.90;12.10;101297.00;;;;4955034;28;108084;-65
2022/05/08 04:48:10;;;;;;;4.53;3.70;;;12.10;99.90;12.10;101306.00;;;;4954336;28;118123;-65
2022/05/08 04:50:35;;;;;;;6.63;4.10;;;12.10;99.90;12.10;101306.00;;;;4954568;28;117078;-66
2022/05/08 04:53:01;;;;;;;4.93;4.40;;;12.10;99.90;12.10;101317.00;;;;4950743;28;110367;-66
2022/05/08 04:55:27;;;;;;;4.73;3.80;;;12.00;99.90;12.10;101321.00;;;;4935751;28;87826;-66
2022/05/08 04:57:52;;;;;;;7.67;4.87;;;12.00;99.90;12.10;101325.00;;;;4935949;28;88507;-66
2022/05/08 05:00:18;;;;;;;6.33;4.80;;;12.10;99.90;12.10;101329.00;;;;4935639;28;117123;-66
2022/05/08 05:02:44;;;;;;;6.13;4.60;;;12.10;99.90;12.10;101329.00;;;;4947235;28;87849;-66
2022/05/08 05:05:10;;;;;;;11.27;4.70;;;12.10;99.90;12.10;101330.00;;;;4953873;28;107799;-65
2022/05/08 05:07:39;;;;;;;6.53;4.63;;;12.00;99.90;12.10;101329.00;;;;4934666;28;116102;-65
2022/05/08 05:10:10;;;;;;;7.27;4.73;;;12.10;99.90;12.10;101334.00;;;;4935116;28;87991;-65
2022/05/08 05:12:36;;;;;;;5.40;4.00;;;12.00;99.90;12.10;101334.00;;;;4940996;28;87749;-65
2022/05/08 05:15:03;;;;;;;5.87;4.67;;;12.10;99.90;12.10;101331.00;;;;4954200;28;88686;-65
2022/05/08 05:17:29;;;;;;;5.40;4.00;;;12.10;99.90;12.10;101351.00;;;;4955365;28;88731;-66
2022/05/08 05:19:54;;;;;;;5.10;4.60;;;12.10;99.90;12.20;101348.00;;;;4953526;28;118080;-66
2022/05/08 05:22:22;;;;;;;6.47;4.53;;;12.10;99.90;12.20;101344.00;;;;4954649;28;108324;-65
2022/05/08 05:24:49;;;;;;;5.33;4.63;;;12.10;99.90;12.30;101342.00;;;;4936062;28;87934;-67
2022/05/08 05:27:14;;;;;;;4.50;3.73;;;12.20;99.90;12.40;101356.00;;;;4936098;28;88597;-65
2022/05/08 05:29:40;;;;;;;5.10;3.60;;;12.30;99.90;12.50;101358.00;;;;4942009;28;107621;-65
2022/05/08 05:32:06;;;;;;;5.03;4.33;;;12.40;99.90;12.60;101366.00;;;;4952683;28;110983;-66
2022/05/08 05:34:32;;;;;;;8.00;4.47;;;12.40;99.90;12.70;101359.00;;;;4943704;28;98240;-65
2022/05/08 05:36:58;;;;;;;6.80;4.17;;;12.60;99.90;12.80;101372.00;;;;4950655;28;119774;-65
2022/05/08 05:39:24;;;;;;;4.63;3.53;;;12.70;99.90;12.90;101365.00;;;;4947082;28;88988;-65
2022/05/08 05:41:50;;;;;;;5.10;4.53;;;12.80;99.90;13.10;101370.00;;;;4945644;28;87538;-65
2022/05/08 05:44:16;;;;;;;4.77;3.97;;;12.90;99.90;13.20;101368.00;;;;4944055;28;87887;-67
2022/05/08 05:49:27;;;;;;;4.40;3.27;;;13.20;99.90;13.50;101376.00;;;;4945923;28;87943;-66
2022/05/08 05:51:54;;;;;;;5.43;4.17;;;13.30;99.90;13.70;101374.00;;;;4950811;28;87802;-67
2022/05/08 05:54:21;;;;;;;4.97;3.67;;;13.50;99.90;13.80;101371.00;;;;4943312;28;98857;-67
2022/05/08 05:56:48;;;;;;;5.97;3.53;;;13.60;99.90;13.90;101370.00;;;;4952082;28;87405;-66
2022/05/08 05:59:14;;;;;;;4.10;3.70;;;13.70;99.90;14.00;101377.00;;;;4946438;28;88368;-66
2022/05/08 06:01:40;;;;;;;5.80;3.37;;;13.90;99.90;14.10;101389.00;;;;4951872;28;87864;-66
2022/05/08 06:04:05;;;;;;;4.63;3.70;;;13.90;99.90;14.20;101375.00;;;;4947049;28;107767;-66
2022/05/08 06:06:31;;;;;;;4.70;2.93;;;14.10;99.90;14.40;101382.00;;;;4946043;28;116658;-66
2022/05/08 06:08:57;;;;;;;4.17;3.77;;;14.20;99.90;14.50;101386.00;;;;4946553;28;115597;-66
2022/05/08 06:11:22;;;;;;;6.03;4.40;;;14.40;99.90;14.70;101393.00;;;;4948033;28;95419;-66
2022/05/08 06:13:48;;;;;;;6.67;4.47;;;14.50;99.90;14.70;101391.00;;;;4948405;28;91938;-66
2022/05/08 06:16:14;;;;;;;5.80;4.27;;;14.60;99.90;14.90;101392.00;;;;4950890;28;89105;-66
2022/05/08 06:18:39;;;;;;;4.23;3.90;;;14.70;99.90;15.00;101404.00;;;;4953188;28;96554;-66
2022/05/08 06:21:05;;;;;;;6.20;4.47;;;14.80;99.90;15.10;101405.00;;;;4953265;28;109817;-66
2022/05/08 06:23:32;;;;;;;5.73;4.97;;;15.00;99.90;15.30;101407.00;;;;4951679;28;108466;-66
2022/05/08 06:25:58;;;;;;;5.15;3.65;;;15.10;99.90;15.40;101396.00;;;;4953609;28;107515;-66
2022/05/08 06:28:24;;;;;;;5.72;3.88;;;15.10;99.90;15.60;101394.00;;;;4951109;28;117711;-66
2022/05/08 06:30:49;;;;;;;4.55;3.40;;;15.40;99.90;15.70;101407.00;;;;4942285;28;87886;-66
2022/05/08 06:33:16;;;;;;;4.10;3.47;;;15.50;99.90;15.80;101407.00;;;;4952114;28;107390;-66
2022/05/08 06:35:41;;;;;;;6.38;4.25;;;15.60;99.90;16.00;101403.00;;;;4950846;28;89033;-66
2022/05/08 06:38:10;;;;;;;3.78;2.92;;;15.80;99.90;16.10;101413.00;;;;4947936;28;98226;-66
2022/05/08 06:40:37;;;;;;;4.22;3.35;;;15.90;99.90;16.30;101414.00;;;;4946572;28;108558;-66
2022/05/08 06:43:03;;;;;;;6.07;3.85;;;16.10;99.90;16.50;101418.00;;;;4951361;28;87783;-66
2022/05/08 06:45:29;;;;;;;4.80;3.63;;;16.20;99.90;16.60;101422.00;;;;4953638;28;88456;-66
2022/05/08 06:47:55;;;;;;;3.92;3.38;;;16.40;99.90;16.80;101428.00;;;;4946595;28;117316;-67
2022/05/08 06:50:20;;;;;;;4.30;2.85;;;16.50;99.90;16.90;101418.00;;;;4954359;28;87693;-68
2022/05/08 06:52:46;;;;;;;3.63;3.22;;;16.60;99.90;17.00;101423.00;;;;4948425;28;88744;-69
2022/05/08 06:55:13;;;;;;;3.03;2.80;;;16.70;99.90;17.00;101422.00;;;;4940992;28;117238;-68
2022/05/08 06:57:39;;;;;;;5.03;3.40;;;16.80;99.90;17.20;101421.00;;;;4945979;28;88625;-68
2022/05/08 07:02:50;;;;;;;6.47;4.25;;;17.00;99.90;17.30;101426.00;;;;4949952;28;87903;-68
2022/05/08 07:05:17;;;;;;;5.05;3.42;;;17.10;99.90;17.40;101437.00;;;;4946970;28;88870;-68
2022/05/08 07:07:42;;;;;;;5.88;3.03;;;17.20;99.90;17.40;101422.00;;;;4952281;28;111687;-68
2022/05/08 07:10:09;;;;;;;3.53;3.22;;;17.30;99.90;17.50;101434.00;;;;4949315;28;111016;-67
2022/05/08 07:12:37;;;;;;;3.83;3.22;;;17.30;99.90;17.50;101426.00;;;;4954081;28;87783;-67
2022/05/08 07:15:04;;;;;;;3.58;3.03;;;17.40;99.90;17.60;101432.00;;;;4948566;28;119073;-67
2022/05/08 07:17:30;;;;;;;3.20;2.75;;;17.40;99.90;17.70;101439.00;;;;4952831;28;88937;-67
2022/05/08 07:19:56;;;;;;;5.47;3.42;;;17.50;99.90;17.80;101440.00;;;;4948842;28;103713;-67
2022/05/08 07:22:25;;;;;;;2.95;2.70;;;17.60;99.90;17.90;101439.00;;;;4948980;28;88054;-67
2022/05/08 07:24:51;;;;;;;5.82;3.95;;;17.70;99.90;18.00;101444.00;;;;4949968;28;118094;-67
2022/05/08 07:27:16;;;;;;;6.80;3.47;;;17.80;99.90;18.00;101453.00;;;;4952185;28;117234;-67
2022/05/08 07:29:43;;;;;;;3.47;3.17;;;17.80;99.90;18.10;101444.00;;;;4952560;28;87755;-67
2022/05/08 07:32:10;;;;;;;4.28;3.90;;;17.90;99.90;18.20;101451.00;;;;4953666;28;88126;-67
2022/05/08 07:37:20;;;;;;;3.83;3.05;;;18.10;99.50;18.50;101453.00;;;;4950682;28;87674;-67
2022/05/08 07:39:46;;;;;;;4.93;3.65;;;18.20;99.30;18.60;101452.00;;;;4938909;28;104170;-67
2022/05/08 07:42:12;;;;;;;3.33;2.97;;;18.30;99.10;18.70;101448.00;;;;4949193;28;110008;-67
2022/05/08 07:44:38;;;;;;;4.32;2.88;;;18.40;98.70;18.80;101449.00;;;;4949449;28;89867;-66
2022/05/08 07:47:04;;;;;;;4.25;3.50;;;18.50;98.60;18.90;101456.00;;;;4951484;28;106710;-68
2022/05/08 07:49:30;;;;;;;4.55;2.97;;;18.70;98.20;19.00;101455.00;;;;4945950;28;109724;-67
2022/05/08 07:51:56;;;;;;;6.13;3.47;;;18.70;97.60;19.00;101459.00;;;;4944976;28;108051;-66
2022/05/08 07:54:21;;;;;;;3.70;2.70;;;18.80;97.20;19.00;101457.00;;;;4949710;28;88816;-68
2022/05/08 07:56:47;;;;;;;2.58;2.38;;;18.80;96.80;19.10;101468.00;;;;4950373;28;87956;-68
2022/05/08 07:59:13;;;;;;;2.78;2.35;;;18.90;96.80;19.20;101466.00;;;;4951981;28;110451;-66
2022/05/08 08:01:38;;;;;;;7.70;3.50;;;18.90;96.60;19.20;101467.00;;;;4946919;28;89031;-67
2022/05/08 08:04:19;;;;;;;3.72;2.83;;;18.90;96.20;19.20;101478.00;;;;4948481;28;113569;-68
2022/05/08 08:06:46;;;;;;;5.18;3.58;;;19.00;96.10;19.30;101475.00;;;;4952787;28;89084;-67
2022/05/08 08:09:11;;;;;;;3.85;2.60;;;19.10;95.90;19.40;101476.00;;;;4945491;28;87817;-66
2022/05/08 08:11:38;;;;;;;4.13;2.70;;;19.10;95.60;19.40;101469.00;;;;4949656;28;110080;-67
2022/05/08 08:14:04;;;;;;;4.18;3.30;;;19.10;95.30;19.50;101474.00;;;;4946119;28;88212;-66
2022/05/08 08:16:30;;;;;;;5.47;3.75;;;19.20;95.30;19.70;101484.00;;;;4967352;28;91459;-67
2022/05/08 08:18:58;;;;;;;5.22;3.58;;;19.40;95.20;19.80;101482.00;;;;4944444;28;108992;-66
2022/05/08 08:21:24;;;;;;;5.10;3.25;;;19.50;94.50;19.90;101482.00;;;;4950365;28;87892;-66
2022/05/08 08:23:50;;;;;;;4.00;2.80;;;19.60;94.00;20.00;101486.00;;;;4945035;28;87492;-66
2022/05/08 08:26:16;;;;;;;2.47;2.28;;;19.70;93.80;20.10;101483.00;;;;4944855;28;100002;-66
2022/05/08 08:28:42;;;;;;;4.03;2.75;;;19.80;93.30;20.20;101487.00;;;;4950173;28;97787;-67
2022/05/08 08:31:09;;;;;;;9.48;3.30;;;19.90;92.70;20.20;101493.00;;;;4951699;28;88902;-67
2022/05/08 08:33:42;;;;;;;3.42;2.42;;;19.90;92.60;20.30;101500.00;;;;4950833;28;89269;-68
2022/05/08 08:36:08;;;;;;;5.20;2.75;;;20.10;92.40;20.40;101487.00;;;;4961822;28;89036;-67
2022/05/08 08:38:36;;;;;;;4.15;2.58;;;20.10;91.80;20.40;101494.00;;;;4952387;28;88017;-66
2022/05/08 08:41:04;;;;;;;6.68;2.72;;;20.20;91.60;20.50;101495.00;;;;4951266;28;87987;-66
2022/05/08 08:49:14;;;;;;;2.92;2.63;;;20.40;89.50;20.60;101514.00;;;;4952019;28;87781;-65
2022/05/08 08:51:42;;;;;;;3.17;2.30;;;20.40;88.50;20.60;101509.00;;;;4950921;28;87656;-65
2022/05/08 08:54:08;;;;;;;3.05;2.55;;;20.30;87.00;20.50;101511.00;;;;4946904;28;88114;-65
2022/05/08 08:56:33;;;;;;;4.40;3.22;;;20.30;86.90;20.50;101522.00;;;;4949046;28;99403;-66
2022/05/08 08:58:59;;;;;;;2.97;2.25;;;20.20;86.20;20.50;101515.00;;;;4949181;28;109924;-67
2022/05/08 09:01:25;;;;;;;3.47;2.28;;;20.30;86.20;20.50;101511.00;;;;4952299;28;88048;-66
2022/05/08 09:03:56;;;;;;;2.40;2.20;;;20.30;86.30;20.60;101524.00;;;;4950957;28;113111;-67
2022/05/08 09:06:21;;;;;;;2.55;2.28;;;20.30;85.40;20.60;101526.00;;;;4948149;28;87603;-66
2022/05/08 09:08:47;;;;;;;1.80;1.70;;;20.30;85.40;20.60;101530.00;;;;4949091;28;111718;-66
2022/05/08 09:11:31;;;;;;;1.98;1.67;;;20.30;85.00;20.60;101531.00;;;;4948056;28;107290;-66
2022/05/08 09:13:58;;;;;;;2.42;2.22;;;20.40;84.50;20.70;101527.00;;;;4942718;28;87913;-68
2022/05/08 09:16:23;;;;;;;3.78;2.67;;;20.40;84.30;20.80;101530.00;;;;4949601;28;116411;-66
2022/05/08 09:18:49;;;;;;;3.88;2.33;;;20.50;84.00;20.80;101520.00;;;;4947207;28;110502;-67
2022/05/08 09:24:09;;;;;;;3.05;1.70;;;20.50;82.90;20.90;101512.00;;;;4949498;28;87962;-67
2022/05/08 09:26:36;;;;;;;2.42;1.83;;;20.60;82.30;21.10;101517.00;;;;4948263;28;88715;-68
2022/05/08 09:29:03;;;;;;;2.20;2.00;;;20.70;81.80;21.20;101522.00;;;;4946652;28;88007;-67
2022/05/08 09:31:41;;;;;;;4.22;2.42;;;20.90;80.00;21.40;101517.00;;;;4949795;28;87957;-67
2022/05/08 09:34:07;;;;;;;3.53;2.05;;;21.00;79.00;21.50;101521.00;;;;4951373;28;97850;-65
2022/05/08 09:36:33;;;;;;;2.00;1.77;;;21.10;78.40;21.60;101529.00;;;;4950561;28;94855;-65
2022/05/08 09:39:01;;;;;;;4.65;2.45;;;21.20;77.00;21.60;101519.00;;;;4944272;28;87199;-68
2022/05/08 09:41:35;;;;;;;2.35;1.42;;;21.30;75.80;21.70;101524.00;;;;4948604;28;87810;-66
2022/05/08 09:44:13;;;;;;;5.80;2.05;;;21.30;74.80;21.90;101518.00;;;;4941734;28;87956;-65
2022/05/08 09:46:44;;;;;;;2.83;1.63;;;21.50;73.90;22.10;101530.00;;;;4940218;28;88613;-66
2022/05/08 09:49:13;;;;;;;1.75;1.65;;;21.70;72.60;22.40;101519.00;;;;4949682;28;88524;-66
2022/05/08 09:51:43;;;;;;;1.13;1.02;;;21.90;71.80;22.70;101524.00;;;;4951665;28;88105;-65
2022/05/08 09:54:09;;;;;;;1.92;1.35;;;22.20;71.00;23.00;101518.00;;;;4954684;28;87656;-65
2022/05/08 09:56:36;;;;;;;2.15;1.33;;;22.50;68.90;23.40;101519.00;;;;4948391;28;88793;-66
2022/05/08 09:59:07;;;;;;;5.65;2.53;;;22.90;68.70;23.80;101515.00;;;;4954441;28;90244;-65
2022/05/08 10:01:33;;;;;;;2.53;1.40;;;23.30;65.30;24.10;101515.00;;;;4954903;28;88979;-66
2022/05/08 10:03:59;;;;;;;2.30;1.92;;;23.50;63.60;24.40;101517.00;;;;4953519;28;87746;-66
2022/05/08 10:06:28;;;;;;;1.52;1.20;;;23.80;62.00;24.80;101519.00;;;;4955128;28;88449;-65
2022/05/08 10:13:53;;;;;;;1.63;1.40;;;24.10;59.80;25.00;101514.00;;;;4953069;28;87889;-65
2022/05/08 10:14:33;;;;;;;2.65;1.35;;;24.60;57.60;25.40;101513.00;;;;4947884;28;87843;-66
2022/05/08 10:17:05;;;;;;;2.22;1.50;;;24.80;57.30;25.50;101508.00;;;;4954716;28;88143;-67
2022/05/08 10:19:31;;;;;;;3.83;1.63;;;25.00;55.90;25.40;101511.00;;;;4949280;28;88037;-65
2022/05/08 10:22:06;;;;;;;1.63;1.48;;;24.90;55.00;25.30;101514.00;;;;4953564;28;108502;-66
2022/05/08 10:24:47;;;;;;;1.83;1.65;;;24.90;54.60;25.10;101505.00;;;;4947291;28;88746;-65
2022/05/08 10:27:28;;;;;;;2.53;2.00;;;24.70;54.60;25.00;101509.00;;;;4951908;28;89488;-67
2022/05/08 10:29:54;;;;;;;2.13;1.63;;;24.60;55.30;24.90;101504.00;;;;4954260;28;87305;-67
2022/05/08 10:32:29;;;;;;;1.55;1.20;;;24.40;55.50;25.10;101501.00;;;;4954452;28;100170;-67
2022/05/08 10:35:12;;;;;;;1.73;1.20;;;24.60;56.00;25.60;101500.00;;;;4954240;28;87993;-66
2022/05/08 10:37:39;;;;;;;2.40;1.23;;;24.90;55.90;26.00;101509.00;;;;4952648;28;88881;-67
2022/05/08 10:40:25;;;;;;;1.77;1.63;;;25.30;55.30;26.30;101501.00;;;;4953348;28;104893;-70
2022/05/08 10:43:10;;;;;;;1.80;1.70;;;25.60;54.20;26.40;101499.00;;;;4945106;28;87741;-68
2022/05/08 10:45:40;;;;;;;2.65;1.63;;;25.80;53.80;26.50;101501.00;;;;4953541;28;97565;-69
2022/05/08 10:48:25;;;;;;;2.40;1.60;;;26.00;53.70;26.60;101504.00;;;;4948589;28;87994;-69
2022/05/08 10:50:53;;;;;;;1.73;1.40;;;26.00;53.40;26.40;101504.00;;;;4951727;28;87999;-71
2022/05/08 10:53:29;;;;;;;2.33;1.60;;;26.00;53.00;26.20;101507.00;;;;4954434;28;87727;-71
2022/05/08 10:56:10;;;;;;;2.08;1.30;;;25.90;53.00;26.00;101501.00;;;;4948033;28;88160;-69
2022/05/08 10:58:47;;;;;;;1.35;1.05;;;25.70;52.70;25.70;101508.00;;;;4953756;28;88114;-69
2022/05/08 11:01:15;;;;;;;2.28;1.30;;;25.40;53.00;25.60;101502.00;;;;4964442;28;88005;-69
2022/05/08 11:03:40;;;;;;;2.38;1.58;;;25.30;53.10;25.60;101501.00;;;;4952180;28;88953;-68
2022/05/08 11:06:07;;;;;;;1.63;1.52;;;25.20;53.20;25.70;101500.00;;;;4951156;28;118145;-70
2022/05/08 11:08:36;;;;;;;1.85;1.35;;;25.30;52.80;25.80;101499.00;;;;4948618;28;87750;-71
2022/05/08 11:11:08;;;;;;;1.77;1.38;;;25.30;52.70;25.80;101500.00;;;;4951499;28;87909;-71